Terminal Aerodrome Forecast
Issued by NWS Paducah, KY

Home | Current Version | Previous Version | Text Only | Print | Product List | Glossary On
Versions: 1 2 3 4 5 6 7 8 9 10 11 12 13 14 15 16 17
000
FTUS43 KPAH 312000 AAA
TAFPAH
TAF AMD
KPAH 312033Z 3121/0118 35020G30KT P6SM SCT050
      TEMPO 3121/3123 BKN050
     FM010100 34010G18KT P6SM SKC
     FM010600 32010KT P6SM SKC
     FM011500 35012G18KT P6SM SKC=

USA.gov is the U.S. government's official web portal to all federal, state and local government web resources and services.